Time;durP1;ratioP1;P1;durP2;ratioP2;P2;SDS_P1;SDS_P2;PMS_P1;PMS_P2;Temp;Humidity;BMP_temperature;BMP_pressure;BME280_temperature;BME280_humidity;BME280_pressure;Samples;Min_cycle;Max_cycle;Signal;HPM_P1;HPM_P2
2023/08/26 00:00:43;;;;;;;8.77;4.90;;;20.80;99.90;;;;;;4098590;29;20094;-65
2023/08/26 00:02:44;;;;;;;5.22;4.28;;;20.80;99.90;;;;;;4099244;28;20102;-64
2023/08/26 00:04:46;;;;;;;7.25;4.63;;;20.70;99.90;;;;;;4114143;28;20026;-66
2023/08/26 00:06:48;;;;;;;5.28;4.40;;;20.70;99.90;;;;;;4114910;28;20034;-64
2023/08/26 00:08:52;;;;;;;8.02;4.45;;;20.70;99.90;;;;;;4113533;28;20126;-64
2023/08/26 00:10:53;;;;;;;6.35;4.65;;;20.60;99.90;;;;;;4105031;28;20102;-64
2023/08/26 00:12:54;;;;;;;8.55;5.18;;;20.50;99.90;;;;;;4097745;29;20035;-65
2023/08/26 00:14:56;;;;;;;7.18;4.63;;;20.50;99.90;;;;;;4101075;28;20039;-64
2023/08/26 00:16:57;;;;;;;6.35;4.50;;;20.50;99.90;;;;;;4106711;28;20027;-62
2023/08/26 00:19:02;;;;;;;7.72;4.88;;;20.50;99.90;;;;;;4114633;28;20042;-64
2023/08/26 00:21:03;;;;;;;7.25;4.53;;;20.60;99.90;;;;;;4112691;28;20475;-64
2023/08/26 00:23:04;;;;;;;6.80;4.80;;;20.60;99.90;;;;;;4103982;28;20456;-64
2023/08/26 00:25:07;;;;;;;6.60;4.57;;;20.60;99.90;;;;;;4099347;28;20123;-64
2023/08/26 00:27:08;;;;;;;7.70;4.93;;;20.60;99.90;;;;;;4109977;28;20031;-63
2023/08/26 00:29:09;;;;;;;11.35;5.18;;;20.60;99.90;;;;;;4113652;28;20018;-63
2023/08/26 00:31:11;;;;;;;7.53;5.15;;;20.60;99.90;;;;;;4114134;28;20074;-63
2023/08/26 00:33:12;;;;;;;9.57;4.93;;;20.60;99.90;;;;;;4113297;28;20460;-62
2023/08/26 00:35:13;;;;;;;11.00;5.40;;;20.60;99.90;;;;;;4112223;28;20035;-64
2023/08/26 00:37:14;;;;;;;10.93;5.75;;;20.50;99.90;;;;;;4113335;28;20102;-63
2023/08/26 00:39:15;;;;;;;8.18;5.32;;;20.50;99.90;;;;;;4113482;28;20026;-63
2023/08/26 00:41:16;;;;;;;9.73;5.55;;;20.40;99.90;;;;;;4114562;28;20066;-63
2023/08/26 00:43:17;;;;;;;7.22;5.63;;;20.40;99.90;;;;;;4113201;28;20488;-63
2023/08/26 00:45:19;;;;;;;10.00;5.15;;;20.30;99.90;;;;;;4114106;28;20093;-63
2023/08/26 00:47:20;;;;;;;10.82;5.90;;;20.20;99.90;;;;;;4113387;28;20805;-63
2023/08/26 00:49:22;;;;;;;8.85;5.80;;;20.20;99.90;;;;;;4114053;28;20137;-62
2023/08/26 00:51:24;;;;;;;13.63;5.28;;;20.10;99.90;;;;;;4113139;28;20031;-63
2023/08/26 00:53:25;;;;;;;7.70;5.38;;;20.00;99.90;;;;;;4106312;28;20043;-63
2023/08/26 00:55:26;;;;;;;9.07;5.40;;;20.10;99.90;;;;;;4098289;28;20603;-63
2023/08/26 00:57:27;;;;;;;8.15;5.00;;;20.10;99.90;;;;;;4105429;28;20099;-63
2023/08/26 00:59:29;;;;;;;6.60;4.60;;;20.00;99.90;;;;;;4111347;28;20055;-63
2023/08/26 01:01:34;;;;;;;9.43;4.72;;;20.00;99.90;;;;;;4113142;28;20848;-63
2023/08/26 01:03:35;;;;;;;6.47;5.10;;;20.00;99.90;;;;;;4112696;28;20047;-64
2023/08/26 01:05:37;;;;;;;7.40;4.45;;;19.90;99.90;;;;;;4113606;28;20047;-65
2023/08/26 01:07:38;;;;;;;6.72;5.07;;;19.90;99.90;;;;;;4112812;28;20047;-63
2023/08/26 01:09:39;;;;;;;6.18;4.88;;;19.90;99.90;;;;;;4112594;28;20105;-64
2023/08/26 01:11:49;;;;;;;5.93;4.88;;;19.90;99.90;;;;;;4113556;28;20093;-63
2023/08/26 01:13:59;;;;;;;7.05;4.80;;;19.80;99.90;;;;;;4113000;28;20769;-64
2023/08/26 01:16:02;;;;;;;5.85;4.63;;;19.80;99.90;;;;;;4113912;28;20097;-64
2023/08/26 01:18:06;;;;;;;6.68;5.25;;;19.80;99.90;;;;;;4112623;28;20038;-64
2023/08/26 01:20:09;;;;;;;8.73;4.90;;;19.80;99.90;;;;;;4114027;28;20027;-64
2023/08/26 01:22:12;;;;;;;8.52;5.68;;;19.80;99.90;;;;;;4112665;28;20038;-64
2023/08/26 01:24:14;;;;;;;8.75;5.32;;;19.80;99.90;;;;;;4097561;28;20090;-62
2023/08/26 01:26:15;;;;;;;8.77;5.88;;;19.80;99.90;;;;;;4096863;29;20479;-63
2023/08/26 01:28:16;;;;;;;7.18;5.82;;;19.70;99.90;;;;;;4097850;28;20039;-65
2023/08/26 01:30:21;;;;;;;10.35;5.90;;;19.60;99.90;;;;;;4096637;29;20547;-64
2023/08/26 01:32:30;;;;;;;13.57;6.43;;;19.60;99.90;;;;;;4103664;28;20038;-65
2023/08/26 01:34:35;;;;;;;8.93;5.65;;;19.40;99.90;;;;;;4112609;28;20419;-62
2023/08/26 01:36:44;;;;;;;9.35;7.25;;;19.40;99.90;;;;;;4113208;28;20034;-64
2023/08/26 01:38:46;;;;;;;11.85;6.13;;;19.30;99.90;;;;;;4097085;28;20435;-64
2023/08/26 01:40:53;;;;;;;8.85;6.22;;;19.20;99.90;;;;;;4097619;28;20039;-63
2023/08/26 01:42:55;;;;;;;10.35;6.53;;;19.20;99.90;;;;;;4096272;29;20719;-64
2023/08/26 01:44:56;;;;;;;8.25;6.15;;;19.20;99.90;;;;;;4097839;28;20035;-64
2023/08/26 01:46:57;;;;;;;8.27;5.85;;;19.10;99.90;;;;;;4096639;29;20554;-63
2023/08/26 01:48:58;;;;;;;9.60;5.90;;;19.20;99.90;;;;;;4107833;28;20435;-65
2023/08/26 01:51:00;;;;;;;8.05;5.55;;;19.20;99.90;;;;;;4112315;28;20130;-64
2023/08/26 01:53:01;;;;;;;7.10;5.75;;;19.30;99.90;;;;;;4112627;28;20081;-64
2023/08/26 01:55:03;;;;;;;11.82;5.97;;;19.30;99.90;;;;;;4100208;28;20086;-64
2023/08/26 01:57:04;;;;;;;9.30;6.03;;;19.30;99.90;;;;;;4095974;28;20428;-64
2023/08/26 01:59:05;;;;;;;9.23;6.45;;;19.30;99.90;;;;;;4098113;28;20102;-64
2023/08/26 02:01:06;;;;;;;10.15;6.20;;;19.30;99.90;;;;;;4099074;28;20424;-62
2023/08/26 02:03:07;;;;;;;10.38;6.65;;;19.30;99.90;;;;;;4097107;28;20047;-64
2023/08/26 02:05:09;;;;;;;11.93;7.03;;;19.20;99.90;;;;;;4095656;28;20047;-64
2023/08/26 02:07:10;;;;;;;12.25;7.28;;;19.10;99.90;;;;;;4103043;28;20112;-64
2023/08/26 02:09:11;;;;;;;11.07;7.28;;;19.00;99.90;;;;;;4111558;28;20569;-64
2023/08/26 02:11:13;;;;;;;12.32;7.20;;;18.90;99.90;;;;;;4112799;28;20030;-65
2023/08/26 02:13:14;;;;;;;14.60;7.63;;;18.90;99.90;;;;;;4098942;28;20832;-64
2023/08/26 02:15:15;;;;;;;12.00;7.63;;;18.90;99.90;;;;;;4097402;29;20385;-64
2023/08/26 02:17:16;;;;;;;15.15;7.85;;;18.80;99.90;;;;;;4096014;29;20438;-65
2023/08/26 02:19:17;;;;;;;12.95;7.55;;;18.80;99.90;;;;;;4096842;29;20042;-64
2023/08/26 02:21:18;;;;;;;11.18;7.68;;;18.80;99.90;;;;;;4096264;29;20023;-64
2023/08/26 02:23:19;;;;;;;10.63;7.60;;;18.80;99.90;;;;;;4096031;29;20046;-63
2023/08/26 02:25:21;;;;;;;19.25;7.80;;;18.80;99.90;;;;;;4101062;28;20034;-64
2023/08/26 02:27:22;;;;;;;15.18;7.38;;;18.80;99.90;;;;;;4111821;28;20035;-63
2023/08/26 02:29:23;;;;;;;11.82;6.63;;;18.80;99.90;;;;;;4097242;28;20043;-63
2023/08/26 02:31:24;;;;;;;9.07;6.32;;;18.80;99.90;;;;;;4095778;29;20031;-63
2023/08/26 02:33:26;;;;;;;10.43;7.10;;;18.90;99.90;;;;;;4096811;29;20031;-63
2023/08/26 02:35:28;;;;;;;9.05;6.40;;;18.80;99.90;;;;;;4095705;28;20424;-64
2023/08/26 02:37:29;;;;;;;12.85;6.55;;;18.70;99.90;;;;;;4110466;28;20054;-63
2023/08/26 02:39:30;;;;;;;8.88;5.88;;;18.70;99.90;;;;;;4110221;28;20035;-64
2023/08/26 02:41:31;;;;;;;8.13;5.78;;;18.60;99.90;;;;;;4096877;29;20028;-64
2023/08/26 02:43:32;;;;;;;11.80;6.13;;;18.60;99.90;;;;;;4110542;28;20051;-64
2023/08/26 02:45:33;;;;;;;13.60;6.38;;;18.50;99.90;;;;;;4112324;28;20554;-64
2023/08/26 02:47:35;;;;;;;11.68;6.07;;;18.50;99.90;;;;;;4109538;28;20369;-64
2023/08/26 02:49:36;;;;;;;10.63;6.75;;;18.50;99.90;;;;;;4096336;29;20527;-64
2023/08/26 02:51:37;;;;;;;10.70;6.03;;;18.40;99.90;;;;;;4096089;28;20554;-64
2023/08/26 02:53:38;;;;;;;12.57;6.45;;;18.30;99.90;;;;;;4095779;28;20115;-64
2023/08/26 02:55:39;;;;;;;9.60;6.63;;;18.30;99.90;;;;;;4095601;29;20027;-64
2023/08/26 02:57:40;;;;;;;12.57;6.32;;;18.30;99.90;;;;;;4079654;29;20424;-64
2023/08/26 02:59:41;;;;;;;9.35;6.40;;;18.30;99.90;;;;;;4080436;29;20071;-63
2023/08/26 03:01:42;;;;;;;9.02;6.18;;;18.20;99.90;;;;;;4098186;28;20058;-63
2023/08/26 03:03:44;;;;;;;10.30;6.15;;;18.20;99.90;;;;;;4108801;28;20050;-63
2023/08/26 03:05:45;;;;;;;7.88;5.97;;;18.20;99.90;;;;;;4109806;28;20490;-63
2023/08/26 03:07:46;;;;;;;9.80;6.45;;;18.10;99.90;;;;;;4112476;28;20101;-63
2023/08/26 03:09:47;;;;;;;9.25;6.30;;;18.10;99.90;;;;;;4102919;28;20043;-64
2023/08/26 03:11:48;;;;;;;11.38;5.95;;;18.20;99.90;;;;;;4096638;29;20035;-65
2023/08/26 03:13:49;;;;;;;12.68;6.40;;;18.20;99.90;;;;;;4095149;29;20039;-64
2023/08/26 03:15:50;;;;;;;8.20;6.38;;;18.20;99.90;;;;;;4096948;28;20298;-65
2023/08/26 03:17:52;;;;;;;12.10;7.13;;;18.20;99.90;;;;;;4095148;28;20035;-63
2023/08/26 03:19:53;;;;;;;11.23;6.82;;;18.20;99.90;;;;;;4096067;29;20035;-63
2023/08/26 03:21:54;;;;;;;11.45;7.20;;;18.20;99.90;;;;;;4098857;28;20491;-65
2023/08/26 03:23:55;;;;;;;12.43;6.30;;;18.10;99.90;;;;;;4096798;28;20110;-64
2023/08/26 03:25:57;;;;;;;15.55;7.07;;;18.10;99.90;;;;;;4099312;29;20082;-64
2023/08/26 03:27:58;;;;;;;12.63;7.32;;;18.20;99.90;;;;;;4098348;29;20027;-63
2023/08/26 03:29:59;;;;;;;9.93;6.70;;;18.20;99.90;;;;;;4099532;29;20432;-62
2023/08/26 03:32:00;;;;;;;13.32;6.65;;;18.30;99.90;;;;;;4097189;28;20047;-64
2023/08/26 03:34:02;;;;;;;12.55;8.05;;;18.40;99.90;;;;;;4099527;29;20495;-64
2023/08/26 03:36:04;;;;;;;10.65;6.55;;;18.40;99.90;;;;;;4098538;28;20051;-63
2023/08/26 03:38:05;;;;;;;18.83;6.88;;;18.40;99.90;;;;;;4105731;28;20098;-64
2023/08/26 03:40:09;;;;;;;10.73;6.72;;;18.30;99.90;;;;;;4111100;28;20133;-63
2023/08/26 03:42:10;;;;;;;9.57;5.93;;;18.20;99.90;;;;;;4115416;28;20078;-63
2023/08/26 03:44:11;;;;;;;9.57;5.60;;;18.20;99.90;;;;;;4114045;28;20034;-64
2023/08/26 03:46:13;;;;;;;8.27;5.90;;;18.10;99.90;;;;;;4115387;28;20051;-63
2023/08/26 03:48:14;;;;;;;13.65;5.90;;;18.00;99.90;;;;;;4113261;28;20035;-63
2023/08/26 03:50:15;;;;;;;9.98;5.85;;;17.90;99.90;;;;;;4114892;28;20035;-64
2023/08/26 03:52:17;;;;;;;9.40;6.40;;;17.90;99.90;;;;;;4112214;28;20101;-62
2023/08/26 03:54:18;;;;;;;11.85;6.93;;;17.90;99.90;;;;;;4114561;28;20419;-65
2023/08/26 03:56:19;;;;;;;15.00;6.55;;;17.90;99.90;;;;;;4114566;28;20039;-63
2023/08/26 03:58:20;;;;;;;9.18;6.45;;;17.90;99.90;;;;;;4111415;28;20101;-63
2023/08/26 04:00:21;;;;;;;9.68;6.13;;;18.00;99.90;;;;;;4101558;28;20031;-63
2023/08/26 04:02:23;;;;;;;12.45;6.32;;;18.10;99.90;;;;;;4097855;29;20075;-65
2023/08/26 04:04:24;;;;;;;11.57;7.32;;;18.30;99.90;;;;;;4098023;28;20444;-64
2023/08/26 04:06:25;;;;;;;13.05;8.02;;;18.40;99.90;;;;;;4098042;29;20035;-64
2023/08/26 04:08:28;;;;;;;11.40;7.70;;;18.50;99.90;;;;;;4098971;29;20314;-64
2023/08/26 04:10:29;;;;;;;11.82;7.30;;;18.50;99.90;;;;;;4098035;28;20102;-64
2023/08/26 04:12:30;;;;;;;13.98;7.55;;;18.60;99.90;;;;;;4099042;29;20101;-64
2023/08/26 04:14:33;;;;;;;10.88;7.20;;;18.80;99.90;;;;;;4097692;29;20389;-64
2023/08/26 04:16:35;;;;;;;10.57;6.82;;;19.00;99.90;;;;;;4099323;29;20043;-63
2023/08/26 04:18:36;;;;;;;9.20;7.03;;;19.20;99.90;;;;;;4097729;29;20144;-63
2023/08/26 04:20:37;;;;;;;11.88;6.90;;;19.50;99.90;;;;;;4097856;28;20539;-63
2023/08/26 04:22:38;;;;;;;14.27;7.35;;;19.60;99.90;;;;;;4097406;29;20051;-63
2023/08/26 04:24:39;;;;;;;14.02;8.82;;;19.80;99.90;;;;;;4099070;28;20035;-64
2023/08/26 04:26:40;;;;;;;15.18;8.13;;;20.00;99.90;;;;;;4100984;28;20027;-63
2023/08/26 04:28:42;;;;;;;13.25;8.50;;;20.20;99.90;;;;;;4097466;29;20687;-63
2023/08/26 04:30:44;;;;;;;13.38;7.95;;;20.40;99.90;;;;;;4098257;29;20103;-63
2023/08/26 04:32:47;;;;;;;15.60;8.40;;;20.60;99.90;;;;;;4097137;29;20053;-64
2023/08/26 04:34:48;;;;;;;14.23;7.97;;;20.80;99.90;;;;;;4097560;28;20027;-63
2023/08/26 04:36:49;;;;;;;16.15;8.13;;;21.20;99.90;;;;;;4096623;29;20102;-63
2023/08/26 04:38:50;;;;;;;13.98;7.45;;;21.50;99.90;;;;;;4098470;29;20161;-63
2023/08/26 04:40:51;;;;;;;15.07;8.02;;;21.70;99.90;;;;;;4097286;29;20094;-63
2023/08/26 04:42:55;;;;;;;12.20;7.88;;;22.00;99.90;;;;;;4098330;29;20039;-64
2023/08/26 04:44:58;;;;;;;17.45;8.10;;;22.30;99.90;;;;;;4097407;29;20090;-64
2023/08/26 04:46:59;;;;;;;11.40;7.20;;;22.70;99.90;;;;;;4098784;29;20027;-63
2023/08/26 04:49:00;;;;;;;12.48;7.13;;;23.20;99.90;;;;;;4097115;29;20028;-63
2023/08/26 04:51:04;;;;;;;9.45;7.45;;;23.60;99.90;;;;;;4098441;29;20035;-64
2023/08/26 04:53:05;;;;;;;13.65;9.90;;;23.70;99.90;;;;;;4097019;28;20031;-64
2023/08/26 04:55:07;;;;;;;14.95;9.02;;;23.70;99.90;;;;;;4098043;29;20066;-61
2023/08/26 04:57:08;;;;;;;14.95;9.20;;;23.30;99.90;;;;;;4097264;29;20086;-64
2023/08/26 04:59:09;;;;;;;13.70;10.77;;;23.40;99.90;;;;;;4097058;29;20118;-63
2023/08/26 05:01:10;;;;;;;22.67;16.33;;;23.40;99.90;;;;;;4097575;29;20086;-64
2023/08/26 05:03:11;;;;;;;19.75;14.38;;;23.60;99.90;;;;;;4097083;29;20322;-64
2023/08/26 05:05:13;;;;;;;21.50;11.93;;;23.70;99.90;;;;;;4097704;29;20035;-64
2023/08/26 05:07:14;;;;;;;15.68;10.55;;;24.10;99.90;;;;;;4096677;28;20091;-64
2023/08/26 05:09:15;;;;;;;15.57;10.57;;;24.50;99.90;;;;;;4098004;29;20480;-64
2023/08/26 05:11:17;;;;;;;17.00;13.82;;;24.90;99.90;;;;;;4096780;29;20090;-64
2023/08/26 05:13:18;;;;;;;17.02;13.15;;;25.50;99.90;;;;;;4097772;29;20424;-65
2023/08/26 05:15:19;;;;;;;15.05;11.85;;;25.50;99.90;;;;;;4096441;28;20094;-65
2023/08/26 05:17:20;;;;;;;15.45;11.38;;;25.60;99.90;;;;;;4098158;29;20436;-65
2023/08/26 05:19:22;;;;;;;16.42;10.30;;;25.80;99.90;;;;;;4096837;29;20070;-64
2023/08/26 05:21:23;;;;;;;15.07;9.45;;;26.00;99.90;;;;;;4097935;28;20051;-64
2023/08/26 05:23:24;;;;;;;15.30;9.85;;;26.00;99.90;;;;;;4096497;29;20031;-65
2023/08/26 05:25:25;;;;;;;18.00;12.18;;;26.00;99.90;;;;;;4097440;29;20074;-65
2023/08/26 05:27:27;;;;;;;19.65;11.98;;;26.00;99.90;;;;;;4096658;28;20468;-64
2023/08/26 05:29:28;;;;;;;22.20;14.50;;;26.00;99.90;;;;;;4096967;29;20094;-64
2023/08/26 05:31:29;;;;;;;22.25;15.02;;;26.20;99.90;;;;;;4096973;29;20091;-63
2023/08/26 05:33:30;;;;;;;25.65;13.18;;;26.30;99.90;;;;;;4096465;29;20086;-64
2023/08/26 05:35:32;;;;;;;29.50;14.15;;;26.10;99.90;;;;;;4097105;29;20023;-64
2023/08/26 05:37:33;;;;;;;20.92;13.18;;;26.20;99.90;;;;;;4094698;29;20035;-63
2023/08/26 05:39:34;;;;;;;25.02;13.40;;;26.70;99.90;;;;;;4097602;28;20069;-64
2023/08/26 05:41:35;;;;;;;21.08;12.93;;;27.50;99.90;;;;;;4096520;29;20504;-65
2023/08/26 05:43:36;;;;;;;16.40;11.77;;;27.40;99.90;;;;;;4097368;29;20483;-64
2023/08/26 05:45:38;;;;;;;14.40;10.98;;;27.60;99.90;;;;;;4096285;28;20094;-65
2023/08/26 05:47:39;;;;;;;18.02;10.82;;;27.60;99.90;;;;;;4097412;28;20062;-63
2023/08/26 05:49:40;;;;;;;16.40;11.23;;;27.50;99.90;;;;;;4095844;28;20110;-65
2023/08/26 05:51:41;;;;;;;18.00;11.63;;;27.50;99.90;;;;;;4097315;29;20031;-64
2023/08/26 05:53:42;;;;;;;16.50;10.82;;;27.60;99.90;;;;;;4096127;29;20054;-65
2023/08/26 05:55:44;;;;;;;19.05;10.88;;;27.10;99.90;;;;;;4096691;28;20031;-65
2023/08/26 05:57:45;;;;;;;15.63;9.10;;;27.00;99.90;;;;;;4096019;28;20098;-65
2023/08/26 05:59:46;;;;;;;12.82;9.73;;;26.80;99.90;;;;;;4096187;29;20145;-65
2023/08/26 06:01:47;;;;;;;16.23;9.73;;;26.50;99.90;;;;;;4096471;29;20043;-63
2023/08/26 06:03:48;;;;;;;17.38;10.48;;;26.30;99.90;;;;;;4094451;29;20150;-63
2023/08/26 06:05:49;;;;;;;14.38;8.98;;;26.50;99.90;;;;;;4097015;28;20040;-66
2023/08/26 06:07:51;;;;;;;15.65;9.15;;;26.90;99.90;;;;;;4094714;29;20039;-63
2023/08/26 06:09:52;;;;;;;15.27;9.20;;;27.20;99.90;;;;;;4096860;28;20492;-64
2023/08/26 06:11:55;;;;;;;13.82;8.48;;;27.40;99.90;;;;;;4095425;29;20036;-64
2023/08/26 06:13:58;;;;;;;13.27;8.65;;;27.60;99.90;;;;;;4095962;28;20028;-63
2023/08/26 06:15:59;;;;;;;11.70;7.50;;;27.90;99.90;;;;;;4095629;29;20031;-65
2023/08/26 06:18:01;;;;;;;13.25;7.45;;;27.50;99.90;;;;;;4097052;29;20103;-65
2023/08/26 06:20:05;;;;;;;10.00;6.70;;;27.70;99.90;;;;;;4095163;29;20047;-65
2023/08/26 06:22:06;;;;;;;10.45;6.85;;;27.60;99.90;;;;;;4096789;29;20039;-65
2023/08/26 06:24:08;;;;;;;8.43;6.28;;;27.60;99.90;;;;;;4094977;28;20067;-64
2023/08/26 06:26:09;;;;;;;8.80;6.63;;;27.40;99.90;;;;;;4096489;28;20051;-65
2023/08/26 06:28:10;;;;;;;6.82;5.85;;;27.60;99.90;;;;;;4095722;29;20039;-65
2023/08/26 06:30:11;;;;;;;10.35;6.43;;;27.20;99.90;;;;;;4096135;29;20031;-63
2023/08/26 06:32:12;;;;;;;7.45;5.55;;;27.30;99.90;;;;;;4095913;29;20058;-63
2023/08/26 06:34:14;;;;;;;10.38;6.13;;;27.90;99.90;;;;;;4095400;29;20023;-65
2023/08/26 06:36:15;;;;;;;11.75;6.80;;;28.00;99.90;;;;;;4096129;29;20035;-62
2023/08/26 06:38:16;;;;;;;9.18;6.05;;;27.70;99.90;;;;;;4095798;29;20035;-64
2023/08/26 06:40:17;;;;;;;12.80;5.93;;;27.70;99.90;;;;;;4096328;29;20361;-65
2023/08/26 06:42:18;;;;;;;10.75;5.97;;;27.50;99.90;;;;;;4095227;29;20126;-64
2023/08/26 06:44:19;;;;;;;8.18;5.97;;;27.10;99.90;;;;;;4096046;29;20039;-66
2023/08/26 06:46:20;;;;;;;8.70;5.43;;;27.10;99.90;;;;;;4094472;29;20511;-63
2023/08/26 06:48:21;;;;;;;9.27;6.32;;;26.80;99.90;;;;;;4096330;29;20071;-63
2023/08/26 06:50:23;;;;;;;8.70;5.45;;;26.50;99.90;;;;;;4095096;29;20035;-62
2023/08/26 06:52:24;;;;;;;8.05;5.97;;;26.80;99.90;;;;;;4095796;29;20019;-63
2023/08/26 06:54:25;;;;;;;11.23;6.20;;;26.80;99.90;;;;;;4094409;28;20043;-63
2023/08/26 06:56:27;;;;;;;8.98;4.95;;;26.70;99.90;;;;;;4096259;29;20534;-65
2023/08/26 06:58:28;;;;;;;12.02;5.07;;;26.80;99.90;;;;;;4094142;28;20091;-65
2023/08/26 07:00:29;;;;;;;11.00;5.30;;;26.60;99.90;;;;;;4095390;28;20035;-66
2023/08/26 07:02:30;;;;;;;5.85;4.68;;;26.50;99.90;;;;;;4095730;29;20097;-65
2023/08/26 07:04:31;;;;;;;8.93;4.97;;;26.40;99.90;;;;;;4095547;29;20043;-66
2023/08/26 07:06:33;;;;;;;6.28;4.80;;;26.50;99.90;;;;;;4096101;29;20090;-64
2023/08/26 07:08:34;;;;;;;5.57;4.18;;;26.80;99.90;;;;;;4092113;28;20039;-64
2023/08/26 07:10:35;;;;;;;8.45;4.65;;;27.00;99.90;;;;;;4096323;29;20034;-64
2023/08/26 07:12:37;;;;;;;7.00;4.53;;;27.10;99.90;;;;;;4094462;28;20079;-63
2023/08/26 07:14:38;;;;;;;9.13;4.10;;;27.20;99.90;;;;;;4096363;28;20039;-66
2023/08/26 07:16:39;;;;;;;8.68;5.55;;;27.10;99.90;;;;;;4095531;29;20139;-64
2023/08/26 07:18:40;;;;;;;5.72;4.38;;;27.20;99.90;;;;;;4096195;28;20079;-61
2023/08/26 07:20:44;;;;;;;7.13;4.70;;;26.90;99.90;;;;;;4094583;28;20051;-63
2023/08/26 07:22:46;;;;;;;4.72;4.25;;;27.00;99.90;;;;;;4094274;29;20078;-63
2023/08/26 07:24:47;;;;;;;7.28;5.05;;;27.00;99.90;;;;;;4095332;29;20036;-63
2023/08/26 07:26:48;;;;;;;6.63;4.35;;;26.90;99.90;;;;;;4095793;29;20023;-64
2023/08/26 07:28:49;;;;;;;8.50;4.57;;;27.00;99.90;;;;;;4094802;28;20039;-64
2023/08/26 07:30:53;;;;;;;5.30;4.50;;;27.20;99.90;;;;;;4095713;28;20035;-63
2023/08/26 07:32:54;;;;;;;6.93;4.28;;;27.70;99.90;;;;;;4095664;28;20480;-64
2023/08/26 07:34:56;;;;;;;5.72;4.32;;;27.90;99.90;;;;;;4094135;29;20102;-64
2023/08/26 07:36:58;;;;;;;6.32;4.43;;;28.00;99.80;;;;;;4089267;28;20028;-62
2023/08/26 07:38:59;;;;;;;9.80;4.70;;;27.80;99.70;;;;;;4087360;29;20881;-63
2023/08/26 07:41:00;;;;;;;6.32;4.25;;;27.70;99.90;;;;;;4095804;29;20086;-66
2023/08/26 07:43:01;;;;;;;6.25;4.30;;;27.50;99.90;;;;;;4093916;29;20415;-67
2023/08/26 07:45:03;;;;;;;8.32;4.25;;;27.50;99.90;;;;;;4095058;28;20150;-62
2023/08/26 07:47:04;;;;;;;8.35;4.47;;;27.40;99.90;;;;;;4095070;29;20127;-64
2023/08/26 07:49:05;;;;;;;7.47;4.50;;;27.40;99.90;;;;;;4095734;28;20488;-63
2023/08/26 07:51:06;;;;;;;5.28;3.60;;;27.30;99.90;;;;;;4095061;29;20783;-64
2023/08/26 07:53:08;;;;;;;6.15;4.35;;;27.60;99.90;;;;;;4095939;29;20027;-63
2023/08/26 07:55:09;;;;;;;8.18;4.47;;;28.00;99.80;;;;;;4103589;28;20047;-64
2023/08/26 07:57:10;;;;;;;5.93;4.63;;;28.00;99.70;;;;;;4096232;28;20119;-67
2023/08/26 07:59:11;;;;;;;6.75;4.45;;;28.10;99.70;;;;;;4092637;29;20054;-63
2023/08/26 08:01:13;;;;;;;10.93;4.47;;;28.20;99.90;;;;;;4095274;28;20492;-63
2023/08/26 08:03:15;;;;;;;5.47;4.70;;;28.20;99.90;;;;;;4095095;28;20043;-60
2023/08/26 08:05:16;;;;;;;8.40;4.85;;;28.00;99.90;;;;;;4095722;28;20751;-59
2023/08/26 08:07:17;;;;;;;6.40;5.20;;;28.10;99.90;;;;;;4095982;28;20043;-61
2023/08/26 08:09:18;;;;;;;10.77;4.70;;;28.20;99.90;;;;;;4104014;28;20035;-60
2023/08/26 08:11:19;;;;;;;9.95;5.40;;;28.60;99.90;;;;;;4113813;28;20105;-60
2023/08/26 08:13:21;;;;;;;8.30;5.13;;;28.70;99.70;;;;;;4113713;28;20027;-61
2023/08/26 08:15:22;;;;;;;9.55;5.60;;;28.70;99.80;;;;;;4113917;28;20050;-63
2023/08/26 08:17:23;;;;;;;7.45;5.50;;;28.70;99.90;;;;;;4095175;28;20559;-64
2023/08/26 08:19:24;;;;;;;7.60;4.82;;;28.90;99.90;;;;;;4097319;29;20090;-61
2023/08/26 08:21:26;;;;;;;6.68;5.38;;;29.00;99.80;;;;;;4097560;28;20090;-61
2023/08/26 08:23:27;;;;;;;8.50;5.03;;;29.10;99.70;;;;;;4098852;29;20031;-63
2023/08/26 08:25:28;;;;;;;11.45;5.28;;;29.10;99.80;;;;;;4105524;28;20121;-62
2023/08/26 08:27:30;;;;;;;12.00;5.72;;;29.20;99.80;;;;;;4100543;28;20047;-69
2023/08/26 08:29:31;;;;;;;14.10;5.85;;;29.20;99.70;;;;;;4097466;29;20019;-70
2023/08/26 08:31:32;;;;;;;10.65;5.03;;;29.20;99.70;;;;;;4098500;29;20440;-63
2023/08/26 08:33:34;;;;;;;10.65;5.53;;;29.30;99.80;;;;;;4097995;28;20035;-61
2023/08/26 08:35:35;;;;;;;9.00;5.15;;;29.40;99.90;;;;;;4111881;28;20101;-68
2023/08/26 08:37:36;;;;;;;9.00;5.13;;;29.40;99.90;;;;;;4108373;28;20442;-67
2023/08/26 08:39:37;;;;;;;8.00;5.25;;;29.30;99.90;;;;;;4097817;28;20039;-68
2023/08/26 08:41:41;;;;;;;8.45;5.90;;;29.40;99.90;;;;;;4098141;29;20032;-69
2023/08/26 08:43:45;;;;;;;9.52;5.38;;;29.60;99.80;;;;;;4096881;28;20059;-68
2023/08/26 08:45:47;;;;;;;10.13;5.78;;;29.90;99.50;;;;;;4098413;29;20514;-60
2023/08/26 08:47:53;;;;;;;6.78;5.38;;;29.90;99.40;;;;;;4097379;29;20031;-62
2023/08/26 08:49:57;;;;;;;8.68;5.57;;;29.90;99.40;;;;;;4098191;28;20106;-69
2023/08/26 08:51:58;;;;;;;7.15;5.10;;;30.00;99.40;;;;;;4097824;28;20113;-63
2023/08/26 08:54:04;;;;;;;11.45;5.00;;;30.30;99.20;;;;;;4099437;28;20086;-63
2023/08/26 08:56:06;;;;;;;6.10;4.82;;;30.30;98.90;;;;;;4097422;28;20389;-62
2023/08/26 08:58:08;;;;;;;5.60;5.00;;;30.30;98.90;;;;;;4092915;28;20086;-62
2023/08/26 09:00:11;;;;;;;7.50;4.50;;;30.50;98.90;;;;;;4099570;28;20043;-66
2023/08/26 09:02:14;;;;;;;7.18;4.75;;;30.40;98.70;;;;;;4106562;28;20090;-64
2023/08/26 09:04:15;;;;;;;6.88;4.82;;;30.30;98.80;;;;;;4108466;28;20086;-63
2023/08/26 09:06:19;;;;;;;6.25;4.97;;;30.40;98.80;;;;;;4108795;28;20097;-63
2023/08/26 09:08:22;;;;;;;4.95;4.45;;;30.50;98.60;;;;;;4098573;28;20550;-62
2023/08/26 09:10:25;;;;;;;5.80;4.60;;;30.20;98.70;;;;;;4097477;28;20408;-62
2023/08/26 09:12:26;;;;;;;5.93;4.75;;;30.10;98.90;;;;;;4097872;28;20117;-63
2023/08/26 09:14:28;;;;;;;5.40;4.20;;;30.20;98.90;;;;;;4102120;28;20043;-61
2023/08/26 09:16:33;;;;;;;5.47;4.35;;;30.30;98.70;;;;;;4096359;28;20412;-63
2023/08/26 09:18:41;;;;;;;5.63;4.53;;;30.40;98.60;;;;;;4096611;29;20035;-63
2023/08/26 09:20:46;;;;;;;5.85;4.60;;;30.40;98.50;;;;;;4096752;29;20039;-61
2023/08/26 09:22:47;;;;;;;8.20;4.93;;;30.40;98.50;;;;;;4096063;29;20094;-66
2023/08/26 09:24:53;;;;;;;6.03;4.22;;;30.40;98.50;;;;;;4097499;29;20117;-65
2023/08/26 09:26:58;;;;;;;9.25;4.18;;;30.30;98.50;;;;;;4096616;29;20031;-64
2023/08/26 09:28:59;;;;;;;8.60;4.65;;;30.40;98.20;;;;;;4096625;28;20050;-60
2023/08/26 09:31:05;;;;;;;7.90;4.47;;;30.40;98.20;;;;;;4096974;29;20468;-62
2023/08/26 09:33:13;;;;;;;4.53;4.13;;;30.40;98.00;;;;;;4097957;29;20160;-61
2023/08/26 09:35:16;;;;;;;7.55;3.88;;;30.40;98.00;;;;;;4096210;28;20051;-64
2023/08/26 09:37:17;;;;;;;7.05;4.47;;;30.60;98.10;;;;;;4097222;28;20043;-63
2023/08/26 09:39:19;;;;;;;4.85;4.05;;;30.80;97.90;;;;;;4096676;28;20043;-62
2023/08/26 09:41:21;;;;;;;6.95;4.63;;;30.90;97.80;;;;;;4097329;28;20043;-61
2023/08/26 09:43:22;;;;;;;4.72;3.90;;;31.00;97.60;;;;;;4096475;29;20070;-64
2023/08/26 09:45:24;;;;;;;4.45;4.05;;;31.00;97.50;;;;;;4097424;28;20044;-62
2023/08/26 09:47:31;;;;;;;5.85;4.05;;;30.90;97.40;;;;;;4096157;29;20441;-63
2023/08/26 09:49:34;;;;;;;5.00;4.00;;;30.90;97.30;;;;;;4097514;28;20039;-61
2023/08/26 09:51:36;;;;;;;8.35;4.45;;;31.10;97.40;;;;;;4096094;29;20467;-63
2023/08/26 09:53:38;;;;;;;9.15;4.30;;;31.40;97.40;;;;;;4096786;28;20118;-64
2023/08/26 09:55:41;;;;;;;5.95;3.60;;;31.50;97.10;;;;;;4096307;28;20459;-65
2023/08/26 09:57:46;;;;;;;4.65;3.80;;;31.60;96.80;;;;;;4097114;29;20031;-65
2023/08/26 09:59:48;;;;;;;4.93;3.83;;;31.80;96.70;;;;;;4095945;29;20043;-66
2023/08/26 10:01:50;;;;;;;4.55;4.03;;;31.70;96.60;;;;;;4096420;29;20535;-63
2023/08/26 10:04:00;;;;;;;4.60;3.80;;;31.60;96.50;;;;;;4096755;29;20035;-64
2023/08/26 10:06:03;;;;;;;7.72;4.22;;;31.60;96.50;;;;;;4096087;28;20102;-66
2023/08/26 10:08:08;;;;;;;4.28;3.58;;;31.70;96.40;;;;;;4096855;28;20055;-64
2023/08/26 10:10:24;;;;;;;6.70;3.72;;;31.80;96.10;;;;;;4095643;28;20098;-65
2023/08/26 10:12:32;;;;;;;5.15;3.80;;;31.80;95.70;;;;;;4097086;29;20027;-63
2023/08/26 10:14:34;;;;;;;7.57;3.72;;;31.80;95.80;;;;;;4095824;29;20082;-64
2023/08/26 10:16:37;;;;;;;5.95;3.72;;;31.80;95.70;;;;;;4097061;29;20472;-65
2023/08/26 10:18:56;;;;;;;4.43;3.92;;;31.80;95.60;;;;;;4095952;28;20472;-63
2023/08/26 10:21:03;;;;;;;7.95;4.25;;;31.80;95.40;;;;;;4110531;28;20072;-65
2023/08/26 10:23:06;;;;;;;5.93;3.45;;;31.60;95.30;;;;;;4111683;28;20463;-65
2023/08/26 10:25:09;;;;;;;4.90;3.15;;;31.60;95.40;;;;;;4110705;28;20054;-65
2023/08/26 10:27:10;;;;;;;5.32;3.53;;;31.60;95.30;;;;;;4110915;28;20031;-63
2023/08/26 10:29:12;;;;;;;8.55;3.65;;;31.60;95.10;;;;;;4112627;28;20026;-67